sensor_id;sensor_type;location;lat;lon;timestamp;P1;durP1;ratioP1;P2;durP2;ratioP2
12776;SDS011;6452;41.572;23.732;2023-02-18T00:00:28;32.92;;;20.92;;
12776;SDS011;6452;41.572;23.732;2023-02-18T00:02:58;34.35;;;22.30;;
12776;SDS011;6452;41.572;23.732;2023-02-18T00:05:24;31.98;;;19.55;;
12776;SDS011;6452;41.572;23.732;2023-02-18T00:07:53;32.38;;;18.08;;
12776;SDS011;6452;41.572;23.732;2023-02-18T00:10:19;34.35;;;18.75;;
12776;SDS011;6452;41.572;23.732;2023-02-18T00:12:46;28.88;;;18.70;;
12776;SDS011;6452;41.572;23.732;2023-02-18T00:15:13;30.88;;;18.40;;
12776;SDS011;6452;41.572;23.732;2023-02-18T00:17:39;25.27;;;16.17;;
12776;SDS011;6452;41.572;23.732;2023-02-18T00:20:06;26.77;;;17.48;;
12776;SDS011;6452;41.572;23.732;2023-02-18T00:22:34;25.45;;;16.63;;
12776;SDS011;6452;41.572;23.732;2023-02-18T00:25:00;24.35;;;14.93;;
12776;SDS011;6452;41.572;23.732;2023-02-18T00:27:27;25.77;;;17.25;;
12776;SDS011;6452;41.572;23.732;2023-02-18T00:29:53;21.65;;;15.43;;
12776;SDS011;6452;41.572;23.732;2023-02-18T00:32:19;22.67;;;15.15;;
12776;SDS011;6452;41.572;23.732;2023-02-18T00:34:45;22.80;;;14.82;;
12776;SDS011;6452;41.572;23.732;2023-02-18T00:37:12;22.85;;;15.05;;
12776;SDS011;6452;41.572;23.732;2023-02-18T00:39:39;24.15;;;15.57;;
12776;SDS011;6452;41.572;23.732;2023-02-18T00:42:05;23.95;;;17.05;;
12776;SDS011;6452;41.572;23.732;2023-02-18T00:44:32;20.25;;;15.27;;
12776;SDS011;6452;41.572;23.732;2023-02-18T00:46:58;20.30;;;15.13;;
12776;SDS011;6452;41.572;23.732;2023-02-18T00:49:24;19.48;;;14.75;;
12776;SDS011;6452;41.572;23.732;2023-02-18T00:51:51;22.45;;;16.35;;
12776;SDS011;6452;41.572;23.732;2023-02-18T00:54:21;24.55;;;15.40;;
12776;SDS011;6452;41.572;23.732;2023-02-18T00:56:48;22.38;;;15.93;;
12776;SDS011;6452;41.572;23.732;2023-02-18T00:59:14;25.45;;;17.40;;
12776;SDS011;6452;41.572;23.732;2023-02-18T01:01:41;25.80;;;17.27;;
12776;SDS011;6452;41.572;23.732;2023-02-18T01:04:06;18.95;;;13.70;;
12776;SDS011;6452;41.572;23.732;2023-02-18T01:06:33;26.73;;;18.42;;
12776;SDS011;6452;41.572;23.732;2023-02-18T01:08:59;30.70;;;19.48;;
12776;SDS011;6452;41.572;23.732;2023-02-18T01:11:26;28.95;;;19.58;;
12776;SDS011;6452;41.572;23.732;2023-02-18T01:13:53;30.83;;;19.58;;
12776;SDS011;6452;41.572;23.732;2023-02-18T01:16:20;43.85;;;29.85;;
12776;SDS011;6452;41.572;23.732;2023-02-18T01:18:45;39.72;;;25.92;;
12776;SDS011;6452;41.572;23.732;2023-02-18T01:21:12;41.92;;;27.85;;
12776;SDS011;6452;41.572;23.732;2023-02-18T01:23:39;41.92;;;29.17;;
12776;SDS011;6452;41.572;23.732;2023-02-18T01:26:06;48.30;;;29.55;;
12776;SDS011;6452;41.572;23.732;2023-02-18T01:28:36;46.85;;;28.95;;
12776;SDS011;6452;41.572;23.732;2023-02-18T01:31:05;45.30;;;29.63;;
12776;SDS011;6452;41.572;23.732;2023-02-18T01:33:34;40.20;;;26.48;;
12776;SDS011;6452;41.572;23.732;2023-02-18T01:36:00;38.03;;;22.90;;
12776;SDS011;6452;41.572;23.732;2023-02-18T01:38:27;33.85;;;22.80;;
12776;SDS011;6452;41.572;23.732;2023-02-18T01:40:56;34.92;;;22.92;;
12776;SDS011;6452;41.572;23.732;2023-02-18T01:43:23;37.78;;;23.38;;
12776;SDS011;6452;41.572;23.732;2023-02-18T01:48:24;38.08;;;25.50;;
12776;SDS011;6452;41.572;23.732;2023-02-18T01:50:59;36.75;;;25.63;;
12776;SDS011;6452;41.572;23.732;2023-02-18T01:56:21;38.95;;;24.50;;
12776;SDS011;6452;41.572;23.732;2023-02-18T01:58:52;37.53;;;24.33;;
12776;SDS011;6452;41.572;23.732;2023-02-18T02:01:19;40.75;;;25.92;;
12776;SDS011;6452;41.572;23.732;2023-02-18T02:03:46;36.25;;;23.63;;
12776;SDS011;6452;41.572;23.732;2023-02-18T02:06:17;40.78;;;24.52;;
12776;SDS011;6452;41.572;23.732;2023-02-18T02:08:46;33.92;;;23.02;;
12776;SDS011;6452;41.572;23.732;2023-02-18T02:11:34;34.17;;;22.45;;
12776;SDS011;6452;41.572;23.732;2023-02-18T02:14:24;36.03;;;22.27;;
12776;SDS011;6452;41.572;23.732;2023-02-18T02:17:01;33.92;;;21.80;;
12776;SDS011;6452;41.572;23.732;2023-02-18T02:23:41;36.75;;;21.55;;
12776;SDS011;6452;41.572;23.732;2023-02-18T02:31:32;34.55;;;21.27;;
12776;SDS011;6452;41.572;23.732;2023-02-18T02:37:46;33.75;;;22.45;;
12776;SDS011;6452;41.572;23.732;2023-02-18T02:48:47;31.92;;;21.40;;
12776;SDS011;6452;41.572;23.732;2023-02-18T02:54:20;27.02;;;18.05;;
12776;SDS011;6452;41.572;23.732;2023-02-18T02:57:03;25.92;;;19.27;;
12776;SDS011;6452;41.572;23.732;2023-02-18T02:59:30;23.65;;;17.88;;
12776;SDS011;6452;41.572;23.732;2023-02-18T03:02:07;25.85;;;16.08;;
12776;SDS011;6452;41.572;23.732;2023-02-18T03:07:36;25.98;;;17.10;;
12776;SDS011;6452;41.572;23.732;2023-02-18T03:21:18;27.88;;;17.48;;
12776;SDS011;6452;41.572;23.732;2023-02-18T03:23:52;26.13;;;17.25;;
12776;SDS011;6452;41.572;23.732;2023-02-18T03:26:26;23.85;;;16.17;;
12776;SDS011;6452;41.572;23.732;2023-02-18T03:28:56;28.27;;;18.65;;
12776;SDS011;6452;41.572;23.732;2023-02-18T03:31:31;29.20;;;19.00;;
12776;SDS011;6452;41.572;23.732;2023-02-18T03:34:02;26.55;;;17.30;;
12776;SDS011;6452;41.572;23.732;2023-02-18T03:36:38;24.25;;;16.08;;
12776;SDS011;6452;41.572;23.732;2023-02-18T03:39:09;26.52;;;16.63;;
12776;SDS011;6452;41.572;23.732;2023-02-18T03:41:39;27.45;;;18.13;;
12776;SDS011;6452;41.572;23.732;2023-02-18T03:44:06;24.58;;;17.83;;
12776;SDS011;6452;41.572;23.732;2023-02-18T03:46:34;27.08;;;17.10;;
12776;SDS011;6452;41.572;23.732;2023-02-18T03:49:02;26.95;;;16.77;;
12776;SDS011;6452;41.572;23.732;2023-02-18T03:51:29;27.60;;;18.20;;
12776;SDS011;6452;41.572;23.732;2023-02-18T03:53:56;25.02;;;17.45;;
12776;SDS011;6452;41.572;23.732;2023-02-18T03:56:23;27.15;;;17.77;;
12776;SDS011;6452;41.572;23.732;2023-02-18T03:58:50;29.10;;;18.42;;
12776;SDS011;6452;41.572;23.732;2023-02-18T04:01:15;26.17;;;17.63;;
12776;SDS011;6452;41.572;23.732;2023-02-18T04:03:42;24.70;;;16.92;;
12776;SDS011;6452;41.572;23.732;2023-02-18T04:06:08;33.63;;;20.83;;
12776;SDS011;6452;41.572;23.732;2023-02-18T04:08:34;38.83;;;25.27;;
12776;SDS011;6452;41.572;23.732;2023-02-18T04:11:01;36.22;;;21.50;;
12776;SDS011;6452;41.572;23.732;2023-02-18T04:13:27;29.75;;;17.10;;
12776;SDS011;6452;41.572;23.732;2023-02-18T04:15:53;28.55;;;18.05;;
12776;SDS011;6452;41.572;23.732;2023-02-18T04:18:20;30.33;;;19.88;;
12776;SDS011;6452;41.572;23.732;2023-02-18T04:20:47;35.70;;;22.50;;
12776;SDS011;6452;41.572;23.732;2023-02-18T04:23:16;44.05;;;26.60;;
12776;SDS011;6452;41.572;23.732;2023-02-18T04:25:42;38.63;;;24.67;;
12776;SDS011;6452;41.572;23.732;2023-02-18T04:28:09;46.70;;;33.85;;
12776;SDS011;6452;41.572;23.732;2023-02-18T04:30:38;34.92;;;24.88;;
12776;SDS011;6452;41.572;23.732;2023-02-18T04:33:04;39.40;;;25.98;;
12776;SDS011;6452;41.572;23.732;2023-02-18T04:35:31;40.47;;;28.38;;
12776;SDS011;6452;41.572;23.732;2023-02-18T04:37:57;43.95;;;28.02;;
12776;SDS011;6452;41.572;23.732;2023-02-18T04:40:28;41.72;;;25.27;;
12776;SDS011;6452;41.572;23.732;2023-02-18T04:42:58;32.47;;;22.65;;
12776;SDS011;6452;41.572;23.732;2023-02-18T04:45:25;34.13;;;22.52;;
12776;SDS011;6452;41.572;23.732;2023-02-18T04:47:51;32.60;;;22.70;;
12776;SDS011;6452;41.572;23.732;2023-02-18T04:50:18;34.42;;;23.33;;
12776;SDS011;6452;41.572;23.732;2023-02-18T04:52:46;40.92;;;25.85;;
12776;SDS011;6452;41.572;23.732;2023-02-18T04:55:13;46.47;;;27.60;;
12776;SDS011;6452;41.572;23.732;2023-02-18T04:57:39;41.47;;;27.80;;
12776;SDS011;6452;41.572;23.732;2023-02-18T05:00:06;43.10;;;28.60;;
12776;SDS011;6452;41.572;23.732;2023-02-18T05:02:34;52.80;;;32.50;;
12776;SDS011;6452;41.572;23.732;2023-02-18T05:05:00;52.47;;;31.50;;
12776;SDS011;6452;41.572;23.732;2023-02-18T05:07:26;46.78;;;30.13;;
12776;SDS011;6452;41.572;23.732;2023-02-18T05:09:52;46.15;;;30.00;;
12776;SDS011;6452;41.572;23.732;2023-02-18T05:12:18;50.97;;;32.72;;
12776;SDS011;6452;41.572;23.732;2023-02-18T05:14:48;47.35;;;32.55;;
12776;SDS011;6452;41.572;23.732;2023-02-18T05:17:18;53.42;;;31.83;;
12776;SDS011;6452;41.572;23.732;2023-02-18T05:19:45;47.72;;;31.52;;
12776;SDS011;6452;41.572;23.732;2023-02-18T05:22:12;52.53;;;35.50;;
12776;SDS011;6452;41.572;23.732;2023-02-18T05:24:38;50.45;;;32.63;;
12776;SDS011;6452;41.572;23.732;2023-02-18T05:27:05;54.22;;;34.63;;
12776;SDS011;6452;41.572;23.732;2023-02-18T05:29:32;54.80;;;33.60;;
12776;SDS011;6452;41.572;23.732;2023-02-18T05:31:59;54.83;;;36.40;;
12776;SDS011;6452;41.572;23.732;2023-02-18T05:34:25;59.92;;;36.13;;
12776;SDS011;6452;41.572;23.732;2023-02-18T05:36:52;43.03;;;27.55;;
12776;SDS011;6452;41.572;23.732;2023-02-18T05:39:19;35.70;;;24.35;;
12776;SDS011;6452;41.572;23.732;2023-02-18T05:41:46;35.22;;;25.70;;
12776;SDS011;6452;41.572;23.732;2023-02-18T05:44:12;38.38;;;24.80;;
12776;SDS011;6452;41.572;23.732;2023-02-18T05:46:59;37.35;;;27.33;;
12776;SDS011;6452;41.572;23.732;2023-02-18T05:49:28;35.80;;;25.65;;
12776;SDS011;6452;41.572;23.732;2023-02-18T05:51:55;41.15;;;26.40;;
12776;SDS011;6452;41.572;23.732;2023-02-18T05:54:22;38.63;;;24.67;;
12776;SDS011;6452;41.572;23.732;2023-02-18T05:56:49;43.28;;;25.65;;
12776;SDS011;6452;41.572;23.732;2023-02-18T05:59:16;44.42;;;28.63;;
12776;SDS011;6452;41.572;23.732;2023-02-18T06:01:43;39.90;;;28.73;;
12776;SDS011;6452;41.572;23.732;2023-02-18T06:04:09;43.40;;;29.77;;
12776;SDS011;6452;41.572;23.732;2023-02-18T06:06:36;49.80;;;31.80;;
12776;SDS011;6452;41.572;23.732;2023-02-18T06:09:03;46.50;;;31.13;;
12776;SDS011;6452;41.572;23.732;2023-02-18T06:11:29;67.57;;;52.88;;
12776;SDS011;6452;41.572;23.732;2023-02-18T06:13:56;64.45;;;46.00;;
12776;SDS011;6452;41.572;23.732;2023-02-18T06:16:22;54.58;;;36.72;;
12776;SDS011;6452;41.572;23.732;2023-02-18T06:18:49;56.08;;;33.60;;
12776;SDS011;6452;41.572;23.732;2023-02-18T06:21:15;53.67;;;35.47;;
12776;SDS011;6452;41.572;23.732;2023-02-18T06:23:41;57.78;;;37.70;;
12776;SDS011;6452;41.572;23.732;2023-02-18T06:26:08;75.40;;;46.55;;
12776;SDS011;6452;41.572;23.732;2023-02-18T06:28:34;108.82;;;73.28;;
12776;SDS011;6452;41.572;23.732;2023-02-18T06:31:00;72.60;;;47.88;;
12776;SDS011;6452;41.572;23.732;2023-02-18T06:33:27;62.97;;;42.00;;
12776;SDS011;6452;41.572;23.732;2023-02-18T06:36:00;60.45;;;38.17;;
12776;SDS011;6452;41.572;23.732;2023-02-18T06:38:32;49.85;;;34.90;;
12776;SDS011;6452;41.572;23.732;2023-02-18T06:41:03;60.67;;;40.00;;
12776;SDS011;6452;41.572;23.732;2023-02-18T06:43:30;83.53;;;47.30;;
12776;SDS011;6452;41.572;23.732;2023-02-18T06:46:00;193.75;;;73.78;;
12776;SDS011;6452;41.572;23.732;2023-02-18T06:48:27;174.85;;;70.72;;
12776;SDS011;6452;41.572;23.732;2023-02-18T06:50:53;110.35;;;52.35;;
12776;SDS011;6452;41.572;23.732;2023-02-18T06:53:20;67.03;;;40.63;;
12776;SDS011;6452;41.572;23.732;2023-02-18T06:55:50;63.42;;;39.63;;
12776;SDS011;6452;41.572;23.732;2023-02-18T06:58:16;60.22;;;42.35;;
12776;SDS011;6452;41.572;23.732;2023-02-18T07:00:42;69.38;;;42.85;;
12776;SDS011;6452;41.572;23.732;2023-02-18T07:03:10;56.17;;;37.67;;
12776;SDS011;6452;41.572;23.732;2023-02-18T07:05:41;71.20;;;48.05;;
12776;SDS011;6452;41.572;23.732;2023-02-18T07:08:08;66.18;;;41.78;;
12776;SDS011;6452;41.572;23.732;2023-02-18T07:10:35;62.13;;;38.60;;
12776;SDS011;6452;41.572;23.732;2023-02-18T07:13:01;54.78;;;38.05;;
12776;SDS011;6452;41.572;23.732;2023-02-18T07:15:27;45.42;;;31.75;;
12776;SDS011;6452;41.572;23.732;2023-02-18T07:17:53;32.17;;;23.70;;
12776;SDS011;6452;41.572;23.732;2023-02-18T07:20:19;44.80;;;31.00;;
12776;SDS011;6452;41.572;23.732;2023-02-18T07:22:47;52.28;;;34.35;;
12776;SDS011;6452;41.572;23.732;2023-02-18T07:25:13;45.10;;;30.65;;
12776;SDS011;6452;41.572;23.732;2023-02-18T07:27:40;54.58;;;38.17;;
12776;SDS011;6452;41.572;23.732;2023-02-18T07:30:07;52.58;;;36.03;;
12776;SDS011;6452;41.572;23.732;2023-02-18T07:32:34;44.92;;;30.23;;
12776;SDS011;6452;41.572;23.732;2023-02-18T07:35:00;48.40;;;31.33;;
12776;SDS011;6452;41.572;23.732;2023-02-18T07:37:28;49.97;;;32.30;;
12776;SDS011;6452;41.572;23.732;2023-02-18T07:39:54;58.92;;;42.38;;
12776;SDS011;6452;41.572;23.732;2023-02-18T07:42:21;54.25;;;38.90;;
12776;SDS011;6452;41.572;23.732;2023-02-18T07:44:47;59.42;;;41.05;;
12776;SDS011;6452;41.572;23.732;2023-02-18T07:47:14;45.83;;;31.77;;
12776;SDS011;6452;41.572;23.732;2023-02-18T07:49:44;43.97;;;31.00;;
12776;SDS011;6452;41.572;23.732;2023-02-18T07:52:11;49.00;;;32.33;;
12776;SDS011;6452;41.572;23.732;2023-02-18T07:54:37;43.95;;;32.38;;
12776;SDS011;6452;41.572;23.732;2023-02-18T07:57:04;46.88;;;33.88;;
12776;SDS011;6452;41.572;23.732;2023-02-18T07:59:30;58.80;;;34.95;;
12776;SDS011;6452;41.572;23.732;2023-02-18T08:01:57;45.65;;;31.75;;
12776;SDS011;6452;41.572;23.732;2023-02-18T08:04:24;43.17;;;30.55;;
12776;SDS011;6452;41.572;23.732;2023-02-18T08:06:50;37.97;;;28.70;;
12776;SDS011;6452;41.572;23.732;2023-02-18T08:09:17;34.92;;;26.05;;
12776;SDS011;6452;41.572;23.732;2023-02-18T08:11:43;38.42;;;25.90;;
12776;SDS011;6452;41.572;23.732;2023-02-18T08:14:10;31.77;;;24.17;;
12776;SDS011;6452;41.572;23.732;2023-02-18T08:16:36;32.67;;;24.98;;
12776;SDS011;6452;41.572;23.732;2023-02-18T08:19:03;27.33;;;22.10;;
12776;SDS011;6452;41.572;23.732;2023-02-18T08:21:30;27.17;;;20.40;;
12776;SDS011;6452;41.572;23.732;2023-02-18T08:23:56;23.45;;;18.85;;
12776;SDS011;6452;41.572;23.732;2023-02-18T08:26:24;25.20;;;19.15;;
12776;SDS011;6452;41.572;23.732;2023-02-18T08:28:50;20.77;;;17.50;;
12776;SDS011;6452;41.572;23.732;2023-02-18T08:31:22;19.48;;;15.98;;
12776;SDS011;6452;41.572;23.732;2023-02-18T08:33:51;16.85;;;15.05;;
12776;SDS011;6452;41.572;23.732;2023-02-18T08:36:18;17.13;;;15.18;;
12776;SDS011;6452;41.572;23.732;2023-02-18T08:38:45;21.33;;;16.38;;
12776;SDS011;6452;41.572;23.732;2023-02-18T08:41:12;23.02;;;18.60;;
12776;SDS011;6452;41.572;23.732;2023-02-18T08:43:58;24.05;;;18.17;;
12776;SDS011;6452;41.572;23.732;2023-02-18T08:46:24;20.00;;;16.13;;
12776;SDS011;6452;41.572;23.732;2023-02-18T08:48:50;16.00;;;14.30;;
12776;SDS011;6452;41.572;23.732;2023-02-18T08:51:17;16.40;;;13.95;;
12776;SDS011;6452;41.572;23.732;2023-02-18T08:53:45;16.00;;;13.35;;
12776;SDS011;6452;41.572;23.732;2023-02-18T08:56:12;16.05;;;13.57;;
12776;SDS011;6452;41.572;23.732;2023-02-18T08:58:39;18.60;;;14.27;;
12776;SDS011;6452;41.572;23.732;2023-02-18T09:01:07;15.05;;;13.18;;
12776;SDS011;6452;41.572;23.732;2023-02-18T09:03:34;18.73;;;15.50;;
12776;SDS011;6452;41.572;23.732;2023-02-18T09:06:00;18.92;;;15.18;;
12776;SDS011;6452;41.572;23.732;2023-02-18T09:08:27;18.90;;;14.55;;
12776;SDS011;6452;41.572;23.732;2023-02-18T09:10:55;24.27;;;17.52;;
12776;SDS011;6452;41.572;23.732;2023-02-18T09:13:21;24.83;;;17.98;;
12776;SDS011;6452;41.572;23.732;2023-02-18T09:15:55;21.70;;;16.52;;
12776;SDS011;6452;41.572;23.732;2023-02-18T09:18:23;30.85;;;22.40;;
12776;SDS011;6452;41.572;23.732;2023-02-18T09:20:50;22.67;;;15.90;;
12776;SDS011;6452;41.572;23.732;2023-02-18T09:23:16;25.25;;;19.23;;
12776;SDS011;6452;41.572;23.732;2023-02-18T09:25:43;31.85;;;20.42;;
12776;SDS011;6452;41.572;23.732;2023-02-18T09:28:09;24.98;;;19.05;;
12776;SDS011;6452;41.572;23.732;2023-02-18T09:30:37;23.83;;;19.35;;
12776;SDS011;6452;41.572;23.732;2023-02-18T09:33:04;30.30;;;18.77;;
12776;SDS011;6452;41.572;23.732;2023-02-18T09:35:38;24.80;;;17.75;;
12776;SDS011;6452;41.572;23.732;2023-02-18T09:38:06;21.00;;;17.85;;
12776;SDS011;6452;41.572;23.732;2023-02-18T09:40:34;27.63;;;17.63;;
12776;SDS011;6452;41.572;23.732;2023-02-18T09:43:03;26.38;;;18.35;;
12776;SDS011;6452;41.572;23.732;2023-02-18T09:45:33;21.02;;;17.40;;
12776;SDS011;6452;41.572;23.732;2023-02-18T09:48:00;23.15;;;17.42;;
12776;SDS011;6452;41.572;23.732;2023-02-18T09:50:30;19.98;;;17.20;;
12776;SDS011;6452;41.572;23.732;2023-02-18T09:53:00;26.55;;;20.13;;
12776;SDS011;6452;41.572;23.732;2023-02-18T09:55:30;29.25;;;21.48;;
12776;SDS011;6452;41.572;23.732;2023-02-18T09:57:59;25.75;;;18.60;;
12776;SDS011;6452;41.572;23.732;2023-02-18T10:00:41;24.58;;;16.50;;
12776;SDS011;6452;41.572;23.732;2023-02-18T10:03:11;20.08;;;14.77;;
12776;SDS011;6452;41.572;23.732;2023-02-18T10:08:33;24.00;;;18.60;;
12776;SDS011;6452;41.572;23.732;2023-02-18T10:11:02;29.15;;;21.65;;
12776;SDS011;6452;41.572;23.732;2023-02-18T10:13:31;27.52;;;23.85;;
12776;SDS011;6452;41.572;23.732;2023-02-18T10:15:59;28.05;;;21.05;;
12776;SDS011;6452;41.572;23.732;2023-02-18T10:18:28;26.88;;;20.60;;
12776;SDS011;6452;41.572;23.732;2023-02-18T10:21:08;33.90;;;23.05;;
12776;SDS011;6452;41.572;23.732;2023-02-18T10:26:28;28.10;;;23.58;;
12776;SDS011;6452;41.572;23.732;2023-02-18T10:28:56;33.22;;;25.10;;
12776;SDS011;6452;41.572;23.732;2023-02-18T10:31:34;24.40;;;18.80;;
12776;SDS011;6452;41.572;23.732;2023-02-18T10:36:49;27.30;;;23.10;;
12776;SDS011;6452;41.572;23.732;2023-02-18T10:44:55;19.17;;;16.70;;
12776;SDS011;6452;41.572;23.732;2023-02-18T10:55:49;12.05;;;9.85;;
12776;SDS011;6452;41.572;23.732;2023-02-18T11:01:19;11.27;;;10.07;;
12776;SDS011;6452;41.572;23.732;2023-02-18T11:03:47;12.88;;;11.40;;
12776;SDS011;6452;41.572;23.732;2023-02-18T11:06:26;12.57;;;10.30;;
12776;SDS011;6452;41.572;23.732;2023-02-18T11:08:54;11.05;;;10.05;;
12776;SDS011;6452;41.572;23.732;2023-02-18T11:11:43;12.77;;;11.15;;
12776;SDS011;6452;41.572;23.732;2023-02-18T11:14:08;12.85;;;10.75;;
12776;SDS011;6452;41.572;23.732;2023-02-18T11:16:41;14.15;;;12.75;;
12776;SDS011;6452;41.572;23.732;2023-02-18T11:22:23;15.02;;;13.43;;
12776;SDS011;6452;41.572;23.732;2023-02-18T11:24:53;17.13;;;15.30;;
12776;SDS011;6452;41.572;23.732;2023-02-18T11:27:26;29.27;;;23.25;;
12776;SDS011;6452;41.572;23.732;2023-02-18T11:32:49;22.77;;;18.63;;
12776;SDS011;6452;41.572;23.732;2023-02-18T11:35:20;19.55;;;16.08;;
12776;SDS011;6452;41.572;23.732;2023-02-18T11:37:48;18.58;;;16.55;;
12776;SDS011;6452;41.572;23.732;2023-02-18T11:40:22;18.48;;;15.38;;
12776;SDS011;6452;41.572;23.732;2023-02-18T11:42:48;14.60;;;12.32;;
12776;SDS011;6452;41.572;23.732;2023-02-18T11:45:25;14.07;;;11.98;;
12776;SDS011;6452;41.572;23.732;2023-02-18T11:47:59;12.77;;;11.32;;
12776;SDS011;6452;41.572;23.732;2023-02-18T11:50:31;12.30;;;10.85;;
12776;SDS011;6452;41.572;23.732;2023-02-18T11:52:59;12.63;;;10.30;;
12776;SDS011;6452;41.572;23.732;2023-02-18T11:55:26;17.10;;;11.60;;
12776;SDS011;6452;41.572;23.732;2023-02-18T11:58:05;12.63;;;10.95;;
12776;SDS011;6452;41.572;23.732;2023-02-18T12:00:43;16.13;;;10.35;;
12776;SDS011;6452;41.572;23.732;2023-02-18T12:06:44;10.70;;;9.68;;
12776;SDS011;6452;41.572;23.732;2023-02-18T12:11:48;10.05;;;9.02;;
12776;SDS011;6452;41.572;23.732;2023-02-18T12:14:18;11.85;;;9.57;;
12776;SDS011;6452;41.572;23.732;2023-02-18T12:22:21;11.43;;;8.77;;
12776;SDS011;6452;41.572;23.732;2023-02-18T12:41:01;7.70;;;7.00;;
12776;SDS011;6452;41.572;23.732;2023-02-18T12:46:32;10.82;;;8.60;;
12776;SDS011;6452;41.572;23.732;2023-02-18T12:51:51;11.00;;;7.35;;
12776;SDS011;6452;41.572;23.732;2023-02-18T12:54:55;7.68;;;6.95;;
12776;SDS011;6452;41.572;23.732;2023-02-18T12:58:09;6.45;;;5.85;;
12776;SDS011;6452;41.572;23.732;2023-02-18T13:04:08;6.88;;;6.18;;
12776;SDS011;6452;41.572;23.732;2023-02-18T13:14:54;7.95;;;7.07;;
12776;SDS011;6452;41.572;23.732;2023-02-18T13:17:37;8.60;;;7.70;;
12776;SDS011;6452;41.572;23.732;2023-02-18T13:20:12;9.50;;;7.80;;
12776;SDS011;6452;41.572;23.732;2023-02-18T13:22:39;9.25;;;8.30;;
12776;SDS011;6452;41.572;23.732;2023-02-18T13:25:10;8.85;;;7.95;;
12776;SDS011;6452;41.572;23.732;2023-02-18T13:27:40;8.25;;;7.30;;
12776;SDS011;6452;41.572;23.732;2023-02-18T13:36:07;8.20;;;7.45;;
12776;SDS011;6452;41.572;23.732;2023-02-18T13:41:17;11.02;;;9.82;;
12776;SDS011;6452;41.572;23.732;2023-02-18T13:43:45;12.77;;;9.48;;
12776;SDS011;6452;41.572;23.732;2023-02-18T13:46:12;13.48;;;10.10;;
12776;SDS011;6452;41.572;23.732;2023-02-18T13:48:52;10.95;;;9.80;;
12776;SDS011;6452;41.572;23.732;2023-02-18T13:54:30;10.38;;;8.35;;
12776;SDS011;6452;41.572;23.732;2023-02-18T13:59:40;12.55;;;10.98;;
12776;SDS011;6452;41.572;23.732;2023-02-18T14:10:23;7.10;;;6.07;;
12776;SDS011;6452;41.572;23.732;2023-02-18T14:17:47;10.00;;;8.35;;
12776;SDS011;6452;41.572;23.732;2023-02-18T14:25:20;24.98;;;15.20;;
12776;SDS011;6452;41.572;23.732;2023-02-18T14:27:55;12.23;;;10.70;;
12776;SDS011;6452;41.572;23.732;2023-02-18T14:30:32;13.38;;;10.32;;
12776;SDS011;6452;41.572;23.732;2023-02-18T14:33:04;12.68;;;8.68;;
12776;SDS011;6452;41.572;23.732;2023-02-18T14:35:47;13.00;;;9.35;;
12776;SDS011;6452;41.572;23.732;2023-02-18T14:39:24;15.30;;;9.45;;
12776;SDS011;6452;41.572;23.732;2023-02-18T14:44:16;14.35;;;11.02;;
12776;SDS011;6452;41.572;23.732;2023-02-18T14:47:08;13.35;;;11.57;;
12776;SDS011;6452;41.572;23.732;2023-02-18T14:49:50;11.13;;;10.13;;
12776;SDS011;6452;41.572;23.732;2023-02-18T14:52:27;15.75;;;12.70;;
12776;SDS011;6452;41.572;23.732;2023-02-18T14:54:57;14.55;;;11.15;;
12776;SDS011;6452;41.572;23.732;2023-02-18T14:58:04;11.80;;;10.65;;
12776;SDS011;6452;41.572;23.732;2023-02-18T15:00:34;21.95;;;18.52;;
12776;SDS011;6452;41.572;23.732;2023-02-18T15:03:08;26.05;;;21.33;;
12776;SDS011;6452;41.572;23.732;2023-02-18T15:05:37;19.75;;;17.65;;
12776;SDS011;6452;41.572;23.732;2023-02-18T15:08:05;22.00;;;19.35;;
12776;SDS011;6452;41.572;23.732;2023-02-18T15:13:51;58.53;;;48.20;;
12776;SDS011;6452;41.572;23.732;2023-02-18T15:16:01;67.03;;;51.40;;
12776;SDS011;6452;41.572;23.732;2023-02-18T15:18:33;71.18;;;54.90;;
12776;SDS011;6452;41.572;23.732;2023-02-18T15:24:06;86.35;;;65.43;;
12776;SDS011;6452;41.572;23.732;2023-02-18T15:26:42;110.15;;;81.15;;
12776;SDS011;6452;41.572;23.732;2023-02-18T15:29:23;108.32;;;77.28;;
12776;SDS011;6452;41.572;23.732;2023-02-18T15:31:51;113.55;;;74.82;;
12776;SDS011;6452;41.572;23.732;2023-02-18T15:36:51;98.25;;;64.45;;
12776;SDS011;6452;41.572;23.732;2023-02-18T15:39:17;86.90;;;58.08;;
12776;SDS011;6452;41.572;23.732;2023-02-18T15:41:44;47.00;;;33.60;;
12776;SDS011;6452;41.572;23.732;2023-02-18T15:44:16;46.70;;;32.53;;
12776;SDS011;6452;41.572;23.732;2023-02-18T15:46:46;22.42;;;13.93;;
12776;SDS011;6452;41.572;23.732;2023-02-18T15:49:18;23.73;;;18.10;;
12776;SDS011;6452;41.572;23.732;2023-02-18T15:51:48;49.08;;;35.55;;
12776;SDS011;6452;41.572;23.732;2023-02-18T15:54:22;68.65;;;51.75;;
12776;SDS011;6452;41.572;23.732;2023-02-18T15:56:50;75.13;;;52.05;;
12776;SDS011;6452;41.572;23.732;2023-02-18T16:01:54;62.35;;;47.40;;
12776;SDS011;6452;41.572;23.732;2023-02-18T16:04:27;103.85;;;70.85;;
12776;SDS011;6452;41.572;23.732;2023-02-18T16:06:54;102.05;;;72.70;;
12776;SDS011;6452;41.572;23.732;2023-02-18T16:09:22;85.25;;;57.50;;
12776;SDS011;6452;41.572;23.732;2023-02-18T16:11:57;94.30;;;63.08;;
12776;SDS011;6452;41.572;23.732;2023-02-18T16:22:25;490.30;;;333.55;;
12776;SDS011;6452;41.572;23.732;2023-02-18T16:27:30;173.68;;;120.95;;
12776;SDS011;6452;41.572;23.732;2023-02-18T16:29:59;249.73;;;173.38;;
12776;SDS011;6452;41.572;23.732;2023-02-18T16:32:29;274.58;;;197.65;;
12776;SDS011;6452;41.572;23.732;2023-02-18T16:34:55;249.65;;;163.48;;
12776;SDS011;6452;41.572;23.732;2023-02-18T16:37:22;262.40;;;168.68;;
12776;SDS011;6452;41.572;23.732;2023-02-18T16:40:10;238.50;;;151.73;;
12776;SDS011;6452;41.572;23.732;2023-02-18T16:42:50;195.57;;;123.53;;
12776;SDS011;6452;41.572;23.732;2023-02-18T16:45:18;233.25;;;147.02;;
12776;SDS011;6452;41.572;23.732;2023-02-18T16:47:49;319.95;;;206.63;;
12776;SDS011;6452;41.572;23.732;2023-02-18T16:50:16;274.45;;;174.35;;
12776;SDS011;6452;41.572;23.732;2023-02-18T16:52:47;160.63;;;112.05;;
12776;SDS011;6452;41.572;23.732;2023-02-18T16:55:17;251.57;;;166.20;;
12776;SDS011;6452;41.572;23.732;2023-02-18T16:57:45;283.13;;;178.10;;
12776;SDS011;6452;41.572;23.732;2023-02-18T17:00:13;184.93;;;118.25;;
12776;SDS011;6452;41.572;23.732;2023-02-18T17:02:40;118.20;;;73.80;;
12776;SDS011;6452;41.572;23.732;2023-02-18T17:05:11;101.50;;;71.07;;
12776;SDS011;6452;41.572;23.732;2023-02-18T17:07:42;104.47;;;70.43;;
12776;SDS011;6452;41.572;23.732;2023-02-18T17:10:09;99.22;;;68.10;;
12776;SDS011;6452;41.572;23.732;2023-02-18T17:12:35;115.47;;;76.45;;
12776;SDS011;6452;41.572;23.732;2023-02-18T17:17:41;104.43;;;63.42;;
12776;SDS011;6452;41.572;23.732;2023-02-18T17:20:08;92.10;;;56.97;;
12776;SDS011;6452;41.572;23.732;2023-02-18T17:22:39;102.28;;;62.13;;
12776;SDS011;6452;41.572;23.732;2023-02-18T17:25:11;112.03;;;67.28;;
12776;SDS011;6452;41.572;23.732;2023-02-18T17:27:43;106.47;;;69.03;;
12776;SDS011;6452;41.572;23.732;2023-02-18T17:30:09;83.57;;;54.08;;
12776;SDS011;6452;41.572;23.732;2023-02-18T17:32:37;92.20;;;59.03;;
12776;SDS011;6452;41.572;23.732;2023-02-18T17:35:03;70.97;;;45.50;;